Liggett, Indiana
Current Conditions -  °F | °C
As of 10:53 AM on Thursday 23 Oct 2014 (Local Time) from KHUF Reporting Station
Clear Clear  
Wind Chill: 50°   Ceiling: Unl
Heat Index: 50°   Visibility: 10mi
Dew Point: 43°   Wind: 9mph
Humidity: 77%   Direction: 180°S
Pressure: 30.27"   Gusts: NA
Location:  39.5107°N, 87.4772°W
Report Text: KHUF 231453Z 18008KT 10SM CLR 10/06 A3027 RMK AO2 SLP251 T01000061 52005
Loading
Personal Weather Stations






























Interactive Weather Map
Tropical Storm Tracking
New forecast layout! Learn more

10-Day Weather Forecast

Advertisements
Track Severe Weather on mobile